Hlavní strana
METAR-TAF:

METAR-TAF

Letiště :

Barnaul, Rusko

zeměpisná šířka: 53-26N, zeměpisná délka: 083-31E, výška: 252 m

Aktuální stav počasí

Zpráva byla vytvořena před 30 minutami, v 09:00 UTC
Západní vítr 10 kt
Teplota -6°C
Vlhkost vzduchu 93%
Tlak 1021 hPa
Viditelnost 10 km a více
Zataženo ve výšce 700 ft

METAR: UNBB 110900Z 26005MPS 9999 OVC007 M06/M07 Q1021 R24/590145 NOSIG RMK QFE743

Čas: 16:30 (09:30 UTC)

Předpověď počasí

Zpráva byla vytvořena před 1 hodinou a 30 minutami, v 08:00 UTC
Předpověď platná od 11 v 09 UTC do 12 v 09 UTC
Jihozápadní vítr 6 kt s nárazy do 16 kt
Viditelnost: 5000 m
Oblačno až skoro zataženo ve výšce 700 ft
kouřmo
Dočasný
od 11 v 09 UTC do 11 v 11 UTC
Viditelnost: 3100 m
Zataženo ve výšce 400 ft
slabé sněžení, kouřmo
Dočasný
od 11 v 11 UTC do 12 v 06 UTC
Viditelnost: 0400 m
Zataženo ve výšce 200 ft
slabé sněžení, mrznoucí mlha

TAF: UNBB 110800Z 1109/1209 22003G08MPS 5000 BR BKN007 TEMPO 1109/1111 3100 -SN BR OVC004 TEMPO 1111/1206 0400 -SN FZFG OVC002

Stav a předpovědi počasí z více než 4 000 letišť (zprávy METAR a TAF).

Červené a žluté tečky na mapě představují dostupné meteorologické stanice.

Když kurzor umístíte na tečku, zobrazí se název stanice.

Pak kliknutím zobrazíte stav a předpověď počasí.

Chcete-li změnit mapu, kliknutím na zelené tlačítko se znaménkem +mapu přiblížíte, kliknutím na zelené tlačítko se znaménkem – mapu oddálíte a kliknutím na zelené šipky přejdete na sousední mapy.


METAR-TAF: